sensor_id;sensor_type;location;lat;lon;timestamp;temperature;humidity
3868;DHT22;1949;48.152;11.528;2023-04-02T00:02:24;13.00;45.90
3868;DHT22;1949;48.152;11.528;2023-04-02T00:07:41;12.90;45.80
3868;DHT22;1949;48.152;11.528;2023-04-02T00:10:28;12.80;45.80
3868;DHT22;1949;48.152;11.528;2023-04-02T00:15:36;12.70;45.90
3868;DHT22;1949;48.152;11.528;2023-04-02T00:18:03;12.70;46.00
3868;DHT22;1949;48.152;11.528;2023-04-02T00:20:33;12.60;46.00
3868;DHT22;1949;48.152;11.528;2023-04-02T00:23:01;12.60;46.10
3868;DHT22;1949;48.152;11.528;2023-04-02T00:25:29;12.60;46.10
3868;DHT22;1949;48.152;11.528;2023-04-02T00:27:58;12.60;46.20
3868;DHT22;1949;48.152;11.528;2023-04-02T00:30:25;12.60;46.10
3868;DHT22;1949;48.152;11.528;2023-04-02T00:32:51;12.60;46.20
3868;DHT22;1949;48.152;11.528;2023-04-02T00:35:27;12.70;46.10
3868;DHT22;1949;48.152;11.528;2023-04-02T00:37:54;12.70;46.30
3868;DHT22;1949;48.152;11.528;2023-04-02T00:40:27;12.70;46.20
3868;DHT22;1949;48.152;11.528;2023-04-02T00:42:57;12.80;46.20
3868;DHT22;1949;48.152;11.528;2023-04-02T00:45:28;12.80;46.20
3868;DHT22;1949;48.152;11.528;2023-04-02T00:47:57;12.90;46.30
3868;DHT22;1949;48.152;11.528;2023-04-02T00:52:57;12.90;46.00
3868;DHT22;1949;48.152;11.528;2023-04-02T00:55:31;12.90;45.90
3868;DHT22;1949;48.152;11.528;2023-04-02T00:57:59;12.80;45.80
3868;DHT22;1949;48.152;11.528;2023-04-02T01:00:33;12.80;45.90
3868;DHT22;1949;48.152;11.528;2023-04-02T01:06:05;12.70;46.10
3868;DHT22;1949;48.152;11.528;2023-04-02T01:08:57;12.70;46.00
3868;DHT22;1949;48.152;11.528;2023-04-02T01:11:47;12.70;46.00
3868;DHT22;1949;48.152;11.528;2023-04-02T01:22:50;12.70;46.20
3868;DHT22;1949;48.152;11.528;2023-04-02T01:25:27;12.70;46.10
3868;DHT22;1949;48.152;11.528;2023-04-02T01:30:50;12.70;46.00
3868;DHT22;1949;48.152;11.528;2023-04-02T01:33:18;12.70;46.20
3868;DHT22;1949;48.152;11.528;2023-04-02T01:35:51;12.70;46.10
3868;DHT22;1949;48.152;11.528;2023-04-02T01:38:25;12.70;46.00
3868;DHT22;1949;48.152;11.528;2023-04-02T01:41:23;12.70;46.10
3868;DHT22;1949;48.152;11.528;2023-04-02T01:44:00;12.70;46.30
3868;DHT22;1949;48.152;11.528;2023-04-02T01:46:32;12.70;46.10
3868;DHT22;1949;48.152;11.528;2023-04-02T01:49:02;12.80;46.30
3868;DHT22;1949;48.152;11.528;2023-04-02T01:51:32;12.80;46.80
3868;DHT22;1949;48.152;11.528;2023-04-02T01:54:00;12.80;46.10
3868;DHT22;1949;48.152;11.528;2023-04-02T01:56:27;12.80;46.20
3868;DHT22;1949;48.152;11.528;2023-04-02T01:58:56;12.80;46.10
3868;DHT22;1949;48.152;11.528;2023-04-02T02:01:26;12.80;46.10
3868;DHT22;1949;48.152;11.528;2023-04-02T02:03:55;12.70;46.00
3868;DHT22;1949;48.152;11.528;2023-04-02T02:06:24;12.70;46.00
3868;DHT22;1949;48.152;11.528;2023-04-02T02:08:57;12.70;46.10
3868;DHT22;1949;48.152;11.528;2023-04-02T02:11:27;12.60;46.10
3868;DHT22;1949;48.152;11.528;2023-04-02T02:14:08;12.60;46.10
3868;DHT22;1949;48.152;11.528;2023-04-02T02:16:37;12.50;46.20
3868;DHT22;1949;48.152;11.528;2023-04-02T02:19:07;12.60;46.40
3868;DHT22;1949;48.152;11.528;2023-04-02T02:21:46;12.60;46.40
3868;DHT22;1949;48.152;11.528;2023-04-02T02:24:23;12.60;46.40
3868;DHT22;1949;48.152;11.528;2023-04-02T02:27:20;12.60;46.30
3868;DHT22;1949;48.152;11.528;2023-04-02T02:30:03;12.60;46.30
3868;DHT22;1949;48.152;11.528;2023-04-02T02:32:31;12.60;46.40
3868;DHT22;1949;48.152;11.528;2023-04-02T02:41:02;12.60;46.20
3868;DHT22;1949;48.152;11.528;2023-04-02T02:43:29;12.60;46.30
3868;DHT22;1949;48.152;11.528;2023-04-02T02:45:59;12.60;46.20
3868;DHT22;1949;48.152;11.528;2023-04-02T02:48:33;12.60;46.30
3868;DHT22;1949;48.152;11.528;2023-04-02T02:51:06;12.60;46.20
3868;DHT22;1949;48.152;11.528;2023-04-02T02:53:45;12.50;46.30
3868;DHT22;1949;48.152;11.528;2023-04-02T02:56:13;12.50;46.10
3868;DHT22;1949;48.152;11.528;2023-04-02T02:58:38;12.40;46.10
3868;DHT22;1949;48.152;11.528;2023-04-02T03:01:05;12.40;46.30
3868;DHT22;1949;48.152;11.528;2023-04-02T03:03:32;12.50;46.50
3868;DHT22;1949;48.152;11.528;2023-04-02T03:06:08;12.40;46.30
3868;DHT22;1949;48.152;11.528;2023-04-02T03:08:42;12.40;46.40
3868;DHT22;1949;48.152;11.528;2023-04-02T03:11:26;12.40;46.50
3868;DHT22;1949;48.152;11.528;2023-04-02T03:14:00;12.40;46.50
3868;DHT22;1949;48.152;11.528;2023-04-02T03:16:38;12.40;46.30
3868;DHT22;1949;48.152;11.528;2023-04-02T03:19:23;12.40;46.40
3868;DHT22;1949;48.152;11.528;2023-04-02T03:22:10;12.40;46.20
3868;DHT22;1949;48.152;11.528;2023-04-02T03:27:33;12.40;46.50
3868;DHT22;1949;48.152;11.528;2023-04-02T03:30:27;12.50;46.50
3868;DHT22;1949;48.152;11.528;2023-04-02T03:33:00;12.50;46.60
3868;DHT22;1949;48.152;11.528;2023-04-02T03:35:39;12.50;46.30
3868;DHT22;1949;48.152;11.528;2023-04-02T03:38:18;12.60;46.50
3868;DHT22;1949;48.152;11.528;2023-04-02T03:43:43;12.60;46.40
3868;DHT22;1949;48.152;11.528;2023-04-02T03:46:24;12.60;46.60
3868;DHT22;1949;48.152;11.528;2023-04-02T03:48:59;12.60;46.50
3868;DHT22;1949;48.152;11.528;2023-04-02T03:51:49;12.70;46.60
3868;DHT22;1949;48.152;11.528;2023-04-02T03:54:15;12.70;46.40
3868;DHT22;1949;48.152;11.528;2023-04-02T03:56:43;12.80;46.50
3868;DHT22;1949;48.152;11.528;2023-04-02T04:01:55;12.70;46.30
3868;DHT22;1949;48.152;11.528;2023-04-02T04:04:29;12.70;46.30
3868;DHT22;1949;48.152;11.528;2023-04-02T04:06:57;12.80;46.30
3868;DHT22;1949;48.152;11.528;2023-04-02T04:09:32;12.80;46.40
3868;DHT22;1949;48.152;11.528;2023-04-02T04:12:25;12.80;46.40
3868;DHT22;1949;48.152;11.528;2023-04-02T04:21:00;12.90;46.10
3868;DHT22;1949;48.152;11.528;2023-04-02T04:23:35;12.90;46.30
3868;DHT22;1949;48.152;11.528;2023-04-02T04:34:07;13.00;46.30
3868;DHT22;1949;48.152;11.528;2023-04-02T04:36:46;13.00;46.20
3868;DHT22;1949;48.152;11.528;2023-04-02T04:39:39;13.00;46.00
3868;DHT22;1949;48.152;11.528;2023-04-02T04:42:15;13.00;45.80
3868;DHT22;1949;48.152;11.528;2023-04-02T04:44:54;12.80;45.80
3868;DHT22;1949;48.152;11.528;2023-04-02T04:47:28;12.80;46.00
3868;DHT22;1949;48.152;11.528;2023-04-02T04:50:18;12.70;46.10
3868;DHT22;1949;48.152;11.528;2023-04-02T04:52:46;12.70;46.20
3868;DHT22;1949;48.152;11.528;2023-04-02T04:55:29;12.70;46.20
3868;DHT22;1949;48.152;11.528;2023-04-02T05:03:36;12.70;46.30
3868;DHT22;1949;48.152;11.528;2023-04-02T05:06:25;12.70;46.20
3868;DHT22;1949;48.152;11.528;2023-04-02T05:09:02;12.80;46.30
3868;DHT22;1949;48.152;11.528;2023-04-02T05:11:30;12.80;46.20
3868;DHT22;1949;48.152;11.528;2023-04-02T05:14:00;12.80;46.40
3868;DHT22;1949;48.152;11.528;2023-04-02T05:21:53;12.90;46.10
3868;DHT22;1949;48.152;11.528;2023-04-02T05:24:55;12.90;46.10
3868;DHT22;1949;48.152;11.528;2023-04-02T05:32:57;12.90;46.00
3868;DHT22;1949;48.152;11.528;2023-04-02T05:35:30;12.90;46.00
3868;DHT22;1949;48.152;11.528;2023-04-02T05:37:58;12.90;46.10
3868;DHT22;1949;48.152;11.528;2023-04-02T05:40:35;12.90;46.10
3868;DHT22;1949;48.152;11.528;2023-04-02T05:43:02;12.90;46.10
3868;DHT22;1949;48.152;11.528;2023-04-02T05:45:36;12.80;46.00
3868;DHT22;1949;48.152;11.528;2023-04-02T05:50:42;12.80;46.10
3868;DHT22;1949;48.152;11.528;2023-04-02T05:58:47;12.90;46.10
3868;DHT22;1949;48.152;11.528;2023-04-02T06:01:38;12.90;46.10
3868;DHT22;1949;48.152;11.528;2023-04-02T06:04:39;12.90;46.00
3868;DHT22;1949;48.152;11.528;2023-04-02T06:07:26;12.90;46.10
3868;DHT22;1949;48.152;11.528;2023-04-02T06:12:41;12.90;46.20
3868;DHT22;1949;48.152;11.528;2023-04-02T06:15:19;12.90;46.00
3868;DHT22;1949;48.152;11.528;2023-04-02T06:17:48;12.90;46.10
3868;DHT22;1949;48.152;11.528;2023-04-02T06:20:19;12.80;45.90
3868;DHT22;1949;48.152;11.528;2023-04-02T06:22:51;12.80;46.00
3868;DHT22;1949;48.152;11.528;2023-04-02T06:25:24;12.70;45.90
3868;DHT22;1949;48.152;11.528;2023-04-02T06:27:55;12.70;46.20
3868;DHT22;1949;48.152;11.528;2023-04-02T06:30:34;12.70;46.30
3868;DHT22;1949;48.152;11.528;2023-04-02T06:33:02;12.80;46.20
3868;DHT22;1949;48.152;11.528;2023-04-02T06:35:28;12.80;46.20
3868;DHT22;1949;48.152;11.528;2023-04-02T06:37:57;12.80;46.20
3868;DHT22;1949;48.152;11.528;2023-04-02T06:40:40;12.80;46.20
3868;DHT22;1949;48.152;11.528;2023-04-02T06:43:23;12.70;46.00
3868;DHT22;1949;48.152;11.528;2023-04-02T06:45:53;12.70;46.60
3868;DHT22;1949;48.152;11.528;2023-04-02T06:48:24;12.60;45.90
3868;DHT22;1949;48.152;11.528;2023-04-02T06:50:58;12.60;46.20
3868;DHT22;1949;48.152;11.528;2023-04-02T06:53:36;12.60;46.30
3868;DHT22;1949;48.152;11.528;2023-04-02T06:58:29;12.70;46.50
3868;DHT22;1949;48.152;11.528;2023-04-02T07:00:55;12.70;46.40
3868;DHT22;1949;48.152;11.528;2023-04-02T07:03:24;12.80;46.50
3868;DHT22;1949;48.152;11.528;2023-04-02T07:05:52;12.90;46.40
3868;DHT22;1949;48.152;11.528;2023-04-02T07:08:18;12.90;46.40
3868;DHT22;1949;48.152;11.528;2023-04-02T07:10:45;12.90;46.20
3868;DHT22;1949;48.152;11.528;2023-04-02T07:13:16;12.90;46.30
3868;DHT22;1949;48.152;11.528;2023-04-02T07:15:46;13.00;46.20
3868;DHT22;1949;48.152;11.528;2023-04-02T07:20:49;13.00;46.10
3868;DHT22;1949;48.152;11.528;2023-04-02T07:23:14;13.00;46.10
3868;DHT22;1949;48.152;11.528;2023-04-02T07:25:40;13.00;46.20
3868;DHT22;1949;48.152;11.528;2023-04-02T07:28:06;13.00;46.10
3868;DHT22;1949;48.152;11.528;2023-04-02T07:30:32;13.00;46.20
3868;DHT22;1949;48.152;11.528;2023-04-02T07:32:57;13.00;46.20
3868;DHT22;1949;48.152;11.528;2023-04-02T07:35:23;13.00;46.30
3868;DHT22;1949;48.152;11.528;2023-04-02T07:37:49;13.00;46.30
3868;DHT22;1949;48.152;11.528;2023-04-02T07:40:19;13.00;46.30
3868;DHT22;1949;48.152;11.528;2023-04-02T07:42:46;13.00;46.20
3868;DHT22;1949;48.152;11.528;2023-04-02T07:45:13;13.00;46.20
3868;DHT22;1949;48.152;11.528;2023-04-02T07:47:39;13.10;46.40
3868;DHT22;1949;48.152;11.528;2023-04-02T07:50:06;13.10;46.40
3868;DHT22;1949;48.152;11.528;2023-04-02T07:52:33;13.10;46.30
3868;DHT22;1949;48.152;11.528;2023-04-02T07:55:00;13.20;46.60
3868;DHT22;1949;48.152;11.528;2023-04-02T07:57:26;13.30;46.50
3868;DHT22;1949;48.152;11.528;2023-04-02T07:59:52;13.30;46.50
3868;DHT22;1949;48.152;11.528;2023-04-02T08:02:21;13.30;46.40
3868;DHT22;1949;48.152;11.528;2023-04-02T08:04:48;13.40;46.40
3868;DHT22;1949;48.152;11.528;2023-04-02T08:07:17;13.40;46.20
3868;DHT22;1949;48.152;11.528;2023-04-02T08:09:44;13.50;46.20
3868;DHT22;1949;48.152;11.528;2023-04-02T08:12:14;13.50;46.20
3868;DHT22;1949;48.152;11.528;2023-04-02T08:14:40;13.40;46.00
3868;DHT22;1949;48.152;11.528;2023-04-02T08:17:05;13.30;46.20
3868;DHT22;1949;48.152;11.528;2023-04-02T08:19:31;13.40;46.30
3868;DHT22;1949;48.152;11.528;2023-04-02T08:21:59;13.40;46.20
3868;DHT22;1949;48.152;11.528;2023-04-02T08:24:25;13.30;46.10
3868;DHT22;1949;48.152;11.528;2023-04-02T08:26:51;13.40;46.30
3868;DHT22;1949;48.152;11.528;2023-04-02T08:29:19;13.40;46.40
3868;DHT22;1949;48.152;11.528;2023-04-02T08:31:45;13.40;46.40
3868;DHT22;1949;48.152;11.528;2023-04-02T08:34:11;13.40;46.40
3868;DHT22;1949;48.152;11.528;2023-04-02T08:36:39;13.50;46.50
3868;DHT22;1949;48.152;11.528;2023-04-02T08:39:06;13.50;46.40
3868;DHT22;1949;48.152;11.528;2023-04-02T08:41:48;13.50;46.40
3868;DHT22;1949;48.152;11.528;2023-04-02T08:44:21;13.60;46.10
3868;DHT22;1949;48.152;11.528;2023-04-02T08:47:03;13.60;46.30
3868;DHT22;1949;48.152;11.528;2023-04-02T08:49:49;13.60;46.20
3868;DHT22;1949;48.152;11.528;2023-04-02T08:52:27;13.60;46.20
3868;DHT22;1949;48.152;11.528;2023-04-02T08:54:55;13.60;46.20
3868;DHT22;1949;48.152;11.528;2023-04-02T09:00:29;13.70;46.40
3868;DHT22;1949;48.152;11.528;2023-04-02T09:05:41;13.70;46.30
3868;DHT22;1949;48.152;11.528;2023-04-02T09:08:17;13.80;46.30
3868;DHT22;1949;48.152;11.528;2023-04-02T09:13:37;13.90;46.10
3868;DHT22;1949;48.152;11.528;2023-04-02T09:16:09;13.90;46.20
3868;DHT22;1949;48.152;11.528;2023-04-02T09:18:36;13.90;46.20
3868;DHT22;1949;48.152;11.528;2023-04-02T09:21:28;14.00;46.20
3868;DHT22;1949;48.152;11.528;2023-04-02T09:23:55;14.00;46.10
3868;DHT22;1949;48.152;11.528;2023-04-02T09:26:26;14.00;46.00
3868;DHT22;1949;48.152;11.528;2023-04-02T09:29:03;14.00;46.00
3868;DHT22;1949;48.152;11.528;2023-04-02T09:31:42;14.00;46.10
3868;DHT22;1949;48.152;11.528;2023-04-02T09:34:30;14.00;46.00
3868;DHT22;1949;48.152;11.528;2023-04-02T09:36:59;13.90;46.00
3868;DHT22;1949;48.152;11.528;2023-04-02T09:39:31;13.90;46.00
3868;DHT22;1949;48.152;11.528;2023-04-02T09:41:58;13.90;45.90
3868;DHT22;1949;48.152;11.528;2023-04-02T09:44:31;13.90;46.00
3868;DHT22;1949;48.152;11.528;2023-04-02T09:47:05;14.00;46.00
3868;DHT22;1949;48.152;11.528;2023-04-02T09:49:34;14.00;46.10
3868;DHT22;1949;48.152;11.528;2023-04-02T09:52:28;14.10;46.10
3868;DHT22;1949;48.152;11.528;2023-04-02T09:55:18;14.10;46.30
3868;DHT22;1949;48.152;11.528;2023-04-02T09:57:47;14.20;46.30
3868;DHT22;1949;48.152;11.528;2023-04-02T10:02:44;14.30;46.10
3868;DHT22;1949;48.152;11.528;2023-04-02T10:05:20;14.40;46.00
3868;DHT22;1949;48.152;11.528;2023-04-02T10:07:50;14.30;45.90
3868;DHT22;1949;48.152;11.528;2023-04-02T10:10:41;14.30;46.00
3868;DHT22;1949;48.152;11.528;2023-04-02T10:16:30;14.40;46.10
3868;DHT22;1949;48.152;11.528;2023-04-02T10:21:44;14.40;45.80
3868;DHT22;1949;48.152;11.528;2023-04-02T10:24:14;14.40;46.00
3868;DHT22;1949;48.152;11.528;2023-04-02T10:32:32;14.50;46.00
3868;DHT22;1949;48.152;11.528;2023-04-02T10:37:51;14.60;46.00
3868;DHT22;1949;48.152;11.528;2023-04-02T10:40:36;14.70;46.00
3868;DHT22;1949;48.152;11.528;2023-04-02T10:43:32;14.70;45.90
3868;DHT22;1949;48.152;11.528;2023-04-02T10:46:18;14.80;45.90
3868;DHT22;1949;48.152;11.528;2023-04-02T10:56:48;15.00;45.50
3868;DHT22;1949;48.152;11.528;2023-04-02T10:59:22;15.00;45.60
3868;DHT22;1949;48.152;11.528;2023-04-02T11:01:52;15.00;45.50
3868;DHT22;1949;48.152;11.528;2023-04-02T11:04:38;15.00;45.40
3868;DHT22;1949;48.152;11.528;2023-04-02T11:07:13;15.00;45.20
3868;DHT22;1949;48.152;11.528;2023-04-02T11:09:44;15.00;45.20
3868;DHT22;1949;48.152;11.528;2023-04-02T11:12:41;15.00;45.30
3868;DHT22;1949;48.152;11.528;2023-04-02T11:15:19;15.00;45.40
3868;DHT22;1949;48.152;11.528;2023-04-02T11:17:45;15.00;45.20
3868;DHT22;1949;48.152;11.528;2023-04-02T11:23:19;15.00;45.30
3868;DHT22;1949;48.152;11.528;2023-04-02T11:25:46;15.00;45.20
3868;DHT22;1949;48.152;11.528;2023-04-02T11:28:27;15.00;45.30
3868;DHT22;1949;48.152;11.528;2023-04-02T11:30:54;15.00;45.40
3868;DHT22;1949;48.152;11.528;2023-04-02T11:35:59;15.00;45.40
3868;DHT22;1949;48.152;11.528;2023-04-02T11:40:57;15.00;45.60
3868;DHT22;1949;48.152;11.528;2023-04-02T11:48:46;15.20;45.70
3868;DHT22;1949;48.152;11.528;2023-04-02T11:54:00;15.20;45.80
3868;DHT22;1949;48.152;11.528;2023-04-02T11:56:38;15.30;45.90
3868;DHT22;1949;48.152;11.528;2023-04-02T11:59:10;15.40;45.90
3868;DHT22;1949;48.152;11.528;2023-04-02T12:04:46;15.50;45.80
3868;DHT22;1949;48.152;11.528;2023-04-02T12:10:21;15.60;45.50
3868;DHT22;1949;48.152;11.528;2023-04-02T12:12:48;15.60;45.40
3868;DHT22;1949;48.152;11.528;2023-04-02T12:15:44;15.60;45.30
3868;DHT22;1949;48.152;11.528;2023-04-02T12:18:23;15.60;45.10
3868;DHT22;1949;48.152;11.528;2023-04-02T12:20:51;15.60;45.00
3868;DHT22;1949;48.152;11.528;2023-04-02T12:23:20;15.60;45.00
3868;DHT22;1949;48.152;11.528;2023-04-02T12:26:05;15.60;45.00
3868;DHT22;1949;48.152;11.528;2023-04-02T12:28:32;15.70;45.00
3868;DHT22;1949;48.152;11.528;2023-04-02T12:33:38;15.80;44.80
3868;DHT22;1949;48.152;11.528;2023-04-02T12:36:26;15.80;44.80
3868;DHT22;1949;48.152;11.528;2023-04-02T12:38:57;15.80;44.90
3868;DHT22;1949;48.152;11.528;2023-04-02T12:41:28;15.80;44.80
3868;DHT22;1949;48.152;11.528;2023-04-02T12:44:06;15.80;45.10
3868;DHT22;1949;48.152;11.528;2023-04-02T12:46:37;15.80;45.20
3868;DHT22;1949;48.152;11.528;2023-04-02T12:49:10;15.80;45.30
3868;DHT22;1949;48.152;11.528;2023-04-02T12:51:40;15.80;45.50
3868;DHT22;1949;48.152;11.528;2023-04-02T12:54:05;15.80;45.60
3868;DHT22;1949;48.152;11.528;2023-04-02T12:56:31;15.80;45.60
3868;DHT22;1949;48.152;11.528;2023-04-02T12:58:59;15.80;45.70
3868;DHT22;1949;48.152;11.528;2023-04-02T13:01:30;15.70;45.80
3868;DHT22;1949;48.152;11.528;2023-04-02T13:04:06;15.70;45.90
3868;DHT22;1949;48.152;11.528;2023-04-02T13:06:34;15.70;46.10
3868;DHT22;1949;48.152;11.528;2023-04-02T13:09:03;15.80;46.30
3868;DHT22;1949;48.152;11.528;2023-04-02T13:11:38;15.70;46.20
3868;DHT22;1949;48.152;11.528;2023-04-02T13:14:16;15.70;46.40
3868;DHT22;1949;48.152;11.528;2023-04-02T13:16:43;15.80;46.50
3868;DHT22;1949;48.152;11.528;2023-04-02T13:21:43;15.80;46.50
3868;DHT22;1949;48.152;11.528;2023-04-02T13:24:22;15.80;46.60
3868;DHT22;1949;48.152;11.528;2023-04-02T13:26:52;15.80;46.60
3868;DHT22;1949;48.152;11.528;2023-04-02T13:29:23;15.80;46.70
3868;DHT22;1949;48.152;11.528;2023-04-02T13:31:50;15.80;46.90
3868;DHT22;1949;48.152;11.528;2023-04-02T13:34:17;15.70;46.70
3868;DHT22;1949;48.152;11.528;2023-04-02T13:36:45;15.80;46.90
3868;DHT22;1949;48.152;11.528;2023-04-02T13:39:15;15.70;46.80
3868;DHT22;1949;48.152;11.528;2023-04-02T13:41:51;15.70;46.90
3868;DHT22;1949;48.152;11.528;2023-04-02T13:44:24;15.70;46.90
3868;DHT22;1949;48.152;11.528;2023-04-02T13:46:53;15.70;46.80
3868;DHT22;1949;48.152;11.528;2023-04-02T13:49:20;15.70;47.50
3868;DHT22;1949;48.152;11.528;2023-04-02T13:51:50;15.70;47.10
3868;DHT22;1949;48.152;11.528;2023-04-02T13:57:07;15.80;47.20
3868;DHT22;1949;48.152;11.528;2023-04-02T13:59:33;15.80;47.10
3868;DHT22;1949;48.152;11.528;2023-04-02T14:02:04;15.80;47.10
3868;DHT22;1949;48.152;11.528;2023-04-02T14:04:37;15.80;47.10
3868;DHT22;1949;48.152;11.528;2023-04-02T14:09:59;15.70;47.60
3868;DHT22;1949;48.152;11.528;2023-04-02T14:15:20;15.60;47.10
3868;DHT22;1949;48.152;11.528;2023-04-02T14:17:58;15.60;47.10
3868;DHT22;1949;48.152;11.528;2023-04-02T14:27:03;15.40;47.20
3868;DHT22;1949;48.152;11.528;2023-04-02T14:29:21;15.40;47.20
3868;DHT22;1949;48.152;11.528;2023-04-02T14:32:18;15.40;47.40
3868;DHT22;1949;48.152;11.528;2023-04-02T14:43:04;15.30;47.30
3868;DHT22;1949;48.152;11.528;2023-04-02T14:49:05;15.30;47.50
3868;DHT22;1949;48.152;11.528;2023-04-02T14:51:43;15.30;47.40
3868;DHT22;1949;48.152;11.528;2023-04-02T14:54:38;15.30;47.50
3868;DHT22;1949;48.152;11.528;2023-04-02T15:02:41;15.30;47.50
3868;DHT22;1949;48.152;11.528;2023-04-02T15:05:15;15.30;47.50
3868;DHT22;1949;48.152;11.528;2023-04-02T15:07:56;15.30;47.60
3868;DHT22;1949;48.152;11.528;2023-04-02T15:10:29;15.30;47.40
3868;DHT22;1949;48.152;11.528;2023-04-02T15:12:56;15.30;47.40
3868;DHT22;1949;48.152;11.528;2023-04-02T15:15:43;15.30;47.50
3868;DHT22;1949;48.152;11.528;2023-04-02T15:18:15;15.40;47.60
3868;DHT22;1949;48.152;11.528;2023-04-02T15:20:53;15.40;47.60
3868;DHT22;1949;48.152;11.528;2023-04-02T15:32:00;15.40;47.60
3868;DHT22;1949;48.152;11.528;2023-04-02T15:43:25;15.40;47.70
3868;DHT22;1949;48.152;11.528;2023-04-02T16:05:47;15.20;47.60
3868;DHT22;1949;48.152;11.528;2023-04-02T16:08:30;15.20;47.80
3868;DHT22;1949;48.152;11.528;2023-04-02T16:10:59;15.20;47.90
3868;DHT22;1949;48.152;11.528;2023-04-02T16:13:36;15.20;47.80
3868;DHT22;1949;48.152;11.528;2023-04-02T16:18:54;15.20;48.40
3868;DHT22;1949;48.152;11.528;2023-04-02T16:21:24;15.10;47.80
3868;DHT22;1949;48.152;11.528;2023-04-02T16:23:52;15.10;47.90
3868;DHT22;1949;48.152;11.528;2023-04-02T16:37:44;15.10;47.90
3868;DHT22;1949;48.152;11.528;2023-04-02T16:40:35;15.10;47.80
3868;DHT22;1949;48.152;11.528;2023-04-02T16:54:02;14.90;48.00
3868;DHT22;1949;48.152;11.528;2023-04-02T16:57:20;14.90;48.00
3868;DHT22;1949;48.152;11.528;2023-04-02T17:00:14;14.90;47.80
3868;DHT22;1949;48.152;11.528;2023-04-02T17:03:35;14.90;47.90
3868;DHT22;1949;48.152;11.528;2023-04-02T17:06:08;14.90;47.80
3868;DHT22;1949;48.152;11.528;2023-04-02T17:08:49;14.80;47.60
3868;DHT22;1949;48.152;11.528;2023-04-02T17:11:47;14.80;47.80
3868;DHT22;1949;48.152;11.528;2023-04-02T17:17:16;14.70;47.70
3868;DHT22;1949;48.152;11.528;2023-04-02T17:19:43;14.70;47.70
3868;DHT22;1949;48.152;11.528;2023-04-02T17:22:14;14.60;47.70
3868;DHT22;1949;48.152;11.528;2023-04-02T17:24:50;14.60;47.70
3868;DHT22;1949;48.152;11.528;2023-04-02T17:27:47;14.50;47.70
3868;DHT22;1949;48.152;11.528;2023-04-02T17:33:01;14.50;47.70
3868;DHT22;1949;48.152;11.528;2023-04-02T17:46:36;14.50;47.70
3868;DHT22;1949;48.152;11.528;2023-04-02T17:52:11;14.40;47.70
3868;DHT22;1949;48.152;11.528;2023-04-02T17:54:54;14.40;47.50
3868;DHT22;1949;48.152;11.528;2023-04-02T18:07:53;14.30;47.30
3868;DHT22;1949;48.152;11.528;2023-04-02T18:16:02;14.20;47.20
3868;DHT22;1949;48.152;11.528;2023-04-02T18:19:16;14.10;47.10
3868;DHT22;1949;48.152;11.528;2023-04-02T18:24:46;14.10;47.00
3868;DHT22;1949;48.152;11.528;2023-04-02T18:30:17;14.10;46.90
3868;DHT22;1949;48.152;11.528;2023-04-02T18:38:52;14.00;46.90
3868;DHT22;1949;48.152;11.528;2023-04-02T18:41:37;14.00;46.80
3868;DHT22;1949;48.152;11.528;2023-04-02T18:44:31;14.00;46.90
3868;DHT22;1949;48.152;11.528;2023-04-02T18:49:44;14.00;46.60
3868;DHT22;1949;48.152;11.528;2023-04-02T18:52:14;14.00;46.50
3868;DHT22;1949;48.152;11.528;2023-04-02T18:57:19;13.90;46.30
3868;DHT22;1949;48.152;11.528;2023-04-02T19:08:27;13.70;46.30
3868;DHT22;1949;48.152;11.528;2023-04-02T19:11:08;13.70;46.30
3868;DHT22;1949;48.152;11.528;2023-04-02T19:13:36;13.70;46.20
3868;DHT22;1949;48.152;11.528;2023-04-02T19:24:28;13.60;46.00
3868;DHT22;1949;48.152;11.528;2023-04-02T19:37:57;13.50;45.70
3868;DHT22;1949;48.152;11.528;2023-04-02T19:40:35;13.50;45.60
3868;DHT22;1949;48.152;11.528;2023-04-02T19:43:05;13.50;45.50
3868;DHT22;1949;48.152;11.528;2023-04-02T19:45:34;13.40;45.50
3868;DHT22;1949;48.152;11.528;2023-04-02T19:48:21;13.50;45.70
3868;DHT22;1949;48.152;11.528;2023-04-02T19:50:48;13.50;45.50
3868;DHT22;1949;48.152;11.528;2023-04-02T19:53:15;13.50;45.60
3868;DHT22;1949;48.152;11.528;2023-04-02T19:55:43;13.40;45.40
3868;DHT22;1949;48.152;11.528;2023-04-02T19:58:33;13.40;45.30
3868;DHT22;1949;48.152;11.528;2023-04-02T20:01:00;13.40;45.30
3868;DHT22;1949;48.152;11.528;2023-04-02T20:03:26;13.40;45.30
3868;DHT22;1949;48.152;11.528;2023-04-02T20:05:52;13.40;45.20
3868;DHT22;1949;48.152;11.528;2023-04-02T20:08:19;13.30;45.00
3868;DHT22;1949;48.152;11.528;2023-04-02T20:10:46;13.30;44.90
3868;DHT22;1949;48.152;11.528;2023-04-02T20:13:12;13.30;44.80
3868;DHT22;1949;48.152;11.528;2023-04-02T20:15:40;13.20;44.80
3868;DHT22;1949;48.152;11.528;2023-04-02T20:18:06;13.20;44.80
3868;DHT22;1949;48.152;11.528;2023-04-02T20:20:31;13.20;45.00
3868;DHT22;1949;48.152;11.528;2023-04-02T20:22:57;13.20;44.90
3868;DHT22;1949;48.152;11.528;2023-04-02T20:25:23;13.20;44.80
3868;DHT22;1949;48.152;11.528;2023-04-02T20:27:48;13.20;44.70
3868;DHT22;1949;48.152;11.528;2023-04-02T20:30:14;13.20;44.70
3868;DHT22;1949;48.152;11.528;2023-04-02T20:32:40;13.30;44.80
3868;DHT22;1949;48.152;11.528;2023-04-02T20:35:06;13.30;44.70
3868;DHT22;1949;48.152;11.528;2023-04-02T20:37:32;13.20;44.60
3868;DHT22;1949;48.152;11.528;2023-04-02T20:39:59;13.30;44.50
3868;DHT22;1949;48.152;11.528;2023-04-02T20:42:26;13.20;44.30
3868;DHT22;1949;48.152;11.528;2023-04-02T20:44:52;13.20;44.20
3868;DHT22;1949;48.152;11.528;2023-04-02T20:47:18;13.20;44.30
3868;DHT22;1949;48.152;11.528;2023-04-02T20:49:44;13.10;44.20
3868;DHT22;1949;48.152;11.528;2023-04-02T20:52:10;13.10;44.10
3868;DHT22;1949;48.152;11.528;2023-04-02T20:54:36;13.00;44.00
3868;DHT22;1949;48.152;11.528;2023-04-02T20:57:02;13.00;44.10
3868;DHT22;1949;48.152;11.528;2023-04-02T20:59:28;13.00;44.20
3868;DHT22;1949;48.152;11.528;2023-04-02T21:01:55;13.00;44.00
3868;DHT22;1949;48.152;11.528;2023-04-02T21:04:21;12.90;43.90
3868;DHT22;1949;48.152;11.528;2023-04-02T21:06:47;12.80;43.80
3868;DHT22;1949;48.152;11.528;2023-04-02T21:09:15;12.80;44.00
3868;DHT22;1949;48.152;11.528;2023-04-02T21:11:43;12.70;44.00
3868;DHT22;1949;48.152;11.528;2023-04-02T21:14:09;12.80;44.00
3868;DHT22;1949;48.152;11.528;2023-04-02T21:16:38;12.80;43.90
3868;DHT22;1949;48.152;11.528;2023-04-02T21:19:06;12.70;43.80
3868;DHT22;1949;48.152;11.528;2023-04-02T21:21:34;12.80;44.00
3868;DHT22;1949;48.152;11.528;2023-04-02T21:24:05;12.80;43.90
3868;DHT22;1949;48.152;11.528;2023-04-02T21:26:36;12.80;44.00
3868;DHT22;1949;48.152;11.528;2023-04-02T21:29:03;12.80;43.80
3868;DHT22;1949;48.152;11.528;2023-04-02T21:31:35;12.80;43.80
3868;DHT22;1949;48.152;11.528;2023-04-02T21:34:02;12.90;43.80
3868;DHT22;1949;48.152;11.528;2023-04-02T21:36:33;12.80;43.80
3868;DHT22;1949;48.152;11.528;2023-04-02T21:39:01;12.80;43.60
3868;DHT22;1949;48.152;11.528;2023-04-02T21:41:30;12.80;43.70
3868;DHT22;1949;48.152;11.528;2023-04-02T21:43:59;12.80;43.50